Time,TemperatureF,DewpointF,PressureIn,WindDirection,WindDirectionDegrees,WindSpeedMPH,WindSpeedGustMPH,Humidity,HourlyPrecipIn,Conditions,Clouds,dailyrainin,SoftwareType,DateUTC
2013-05-19 00:05:00,27.1,8.6,30.30,SW,225,2.2,-999.0,45,-99.99,,,0.00,Acu-Link.com,2013-05-19 08:05:00,
2013-05-19 00:20:00,27.0,8.5,30.31,SW,225,2.7,-999.0,45,-99.99,,,0.00,Acu-Link.com,2013-05-19 08:20:00,
2013-05-19 00:35:00,26.1,9.1,30.31,SW,225,0.0,-999.0,48,-99.99,,,0.00,Acu-Link.com,2013-05-19 08:35:00,
2013-05-19 00:50:00,24.4,9.8,30.32,SW,225,1.7,-999.0,53,-99.99,,,0.00,Acu-Link.com,2013-05-19 08:50:00,
2013-05-19 01:06:00,23.4,10.0,30.33,SW,225,0.0,-999.0,56,-99.99,,,0.00,Acu-Link.com,2013-05-19 09:06:00,
2013-05-19 01:21:00,22.1,10.7,30.34,SW,225,0.0,-999.0,61,-99.99,,,0.00,Acu-Link.com,2013-05-19 09:21:00,
2013-05-19 01:36:00,22.3,10.6,30.35,SW,225,0.0,-999.0,60,-99.99,,,0.00,Acu-Link.com,2013-05-19 09:36:00,
2013-05-19 01:51:00,23.7,9.1,30.36,West,270,2.2,-999.0,53,-99.99,,,0.00,Acu-Link.com,2013-05-19 09:51:00,
2013-05-19 02:06:00,23.9,8.9,30.37,WSW,247,1.7,-999.0,52,-99.99,,,0.00,Acu-Link.com,2013-05-19 10:06:00,
2013-05-19 02:21:00,23.5,8.5,30.39,WSW,247,1.1,-999.0,52,-99.99,,,0.00,Acu-Link.com,2013-05-19 10:21:00,
2013-05-19 02:36:00,23.0,8.5,30.39,WSW,247,0.0,-999.0,53,-99.99,,,0.00,Acu-Link.com,2013-05-19 10:36:00,
2013-05-19 02:51:00,21.9,10.2,30.39,WSW,247,0.0,-999.0,60,-99.99,,,0.00,Acu-Link.com,2013-05-19 10:51:00,
2013-05-19 03:07:00,20.8,10.2,30.40,WSW,247,0.0,-999.0,63,-99.99,,,0.00,Acu-Link.com,2013-05-19 11:07:00,
2013-05-19 03:22:00,20.3,11.1,30.41,WSW,247,0.0,-999.0,67,-99.99,,,0.00,Acu-Link.com,2013-05-19 11:22:00,
2013-05-19 03:37:00,19.6,10.5,30.42,WSW,247,0.0,-999.0,67,-99.99,,,0.00,Acu-Link.com,2013-05-19 11:37:00,
2013-05-19 03:52:00,19.0,10.2,30.42,WSW,247,0.0,-999.0,68,-99.99,,,0.00,Acu-Link.com,2013-05-19 11:52:00,
2013-05-19 04:07:00,18.5,11.3,30.43,WSW,247,0.0,-999.0,73,-99.99,,,0.00,Acu-Link.com,2013-05-19 12:07:00,
2013-05-19 04:22:00,18.9,11.1,30.44,WSW,247,0.0,-999.0,71,-99.99,,,0.00,Acu-Link.com,2013-05-19 12:22:00,
2013-05-19 04:37:00,17.4,10.3,30.45,WSW,247,0.0,-999.0,73,-99.99,,,0.00,Acu-Link.com,2013-05-19 12:37:00,
2013-05-19 04:52:00,17.4,10.9,30.46,WSW,247,0.0,-999.0,75,-99.99,,,0.00,Acu-Link.com,2013-05-19 12:52:00,
2013-05-19 05:07:00,17.2,10.7,30.46,WSW,247,0.0,-999.0,75,-99.99,,,0.00,Acu-Link.com,2013-05-19 13:07:00,
2013-05-19 05:23:00,17.8,10.9,30.46,WSW,247,0.0,-999.0,74,-99.99,,,0.00,Acu-Link.com,2013-05-19 13:23:00,
2013-05-19 05:38:00,18.1,10.9,30.47,WSW,247,0.0,-999.0,73,-99.99,,,0.00,Acu-Link.com,2013-05-19 13:38:00,
2013-05-19 05:53:00,17.1,10.0,30.48,WSW,247,0.0,-999.0,73,-99.99,,,0.00,Acu-Link.com,2013-05-19 13:53:00,
2013-05-19 06:08:00,18.7,9.9,30.49,WSW,247,1.7,-999.0,68,-99.99,,,0.00,Acu-Link.com,2013-05-19 14:08:00,
2013-05-19 06:23:00,21.4,8.9,30.50,WSW,247,0.0,-999.0,58,-99.99,,,0.00,Acu-Link.com,2013-05-19 14:23:00,
2013-05-19 06:38:00,24.8,8.4,30.50,West,270,2.7,-999.0,49,-99.99,,,0.00,Acu-Link.com,2013-05-19 14:38:00,
2013-05-19 06:53:00,26.2,7.8,30.50,West,270,2.2,-999.0,45,-99.99,,,0.00,Acu-Link.com,2013-05-19 14:53:00,
2013-05-19 07:08:00,28.6,10.0,30.51,WSW,247,1.1,-999.0,45,-99.99,,,0.00,Acu-Link.com,2013-05-19 15:08:00,
2013-05-19 07:23:00,30.4,7.9,30.52,WSW,247,4.7,-999.0,38,-99.99,,,0.00,Acu-Link.com,2013-05-19 15:23:00,
2013-05-19 07:39:00,30.0,7.5,30.52,SW,225,3.2,-999.0,38,-99.99,,,0.00,Acu-Link.com,2013-05-19 15:39:00,
2013-05-19 07:54:00,31.1,7.9,30.53,WSW,247,1.7,-999.0,37,-99.99,,,0.00,Acu-Link.com,2013-05-19 15:54:00,
2013-05-19 08:09:00,31.3,8.1,30.53,WSW,247,4.2,-999.0,37,-99.99,,,0.00,Acu-Link.com,2013-05-19 16:09:00,
2013-05-19 08:24:00,31.3,7.5,30.54,WSW,247,7.3,-999.0,36,-99.99,,,0.00,Acu-Link.com,2013-05-19 16:24:00,
2013-05-19 08:39:00,31.8,7.9,30.54,West,270,6.8,-999.0,36,-99.99,,,0.00,Acu-Link.com,2013-05-19 16:39:00,
2013-05-19 08:54:00,33.3,8.6,30.55,West,270,3.2,-999.0,35,-99.99,,,0.00,Acu-Link.com,2013-05-19 16:54:00,
2013-05-19 09:09:00,32.5,7.9,30.55,SW,225,6.8,-999.0,35,-99.99,,,0.00,Acu-Link.com,2013-05-19 17:09:00,
2013-05-19 09:24:00,33.4,8.7,30.57,WNW,292,4.7,-999.0,35,-99.99,,,0.00,Acu-Link.com,2013-05-19 17:24:00,
2013-05-19 09:39:00,34.7,8.6,30.56,WSW,247,6.8,-999.0,33,-99.99,,,0.00,Acu-Link.com,2013-05-19 17:39:00,
2013-05-19 09:55:00,34.7,8.6,30.57,SW,225,7.8,-999.0,33,-99.99,,,0.00,Acu-Link.com,2013-05-19 17:55:00,
2013-05-19 10:10:00,36.3,8.6,30.57,SSE,157,5.8,-999.0,31,-99.99,,,0.00,Acu-Link.com,2013-05-19 18:10:00,
2013-05-19 10:25:00,35.1,8.2,30.58,WSW,247,4.7,-999.0,32,-99.99,,,0.00,Acu-Link.com,2013-05-19 18:25:00,
2013-05-19 10:40:00,35.6,8.7,30.58,SW,225,6.3,-999.0,32,-99.99,,,0.00,Acu-Link.com,2013-05-19 18:40:00,
2013-05-19 10:55:00,34.3,7.5,30.58,West,270,7.8,-999.0,32,-99.99,,,0.00,Acu-Link.com,2013-05-19 18:55:00,
2013-05-19 11:10:00,36.5,8.8,30.58,West,270,6.8,-999.0,31,-99.99,,,0.00,Acu-Link.com,2013-05-19 19:10:00,
2013-05-19 11:25:00,36.9,8.4,30.59,WSW,247,5.3,-999.0,30,-99.99,,,0.00,Acu-Link.com,2013-05-19 19:25:00,
2013-05-19 11:40:00,37.4,8.1,30.59,WSW,247,5.8,-999.0,29,-99.99,,,0.00,Acu-Link.com,2013-05-19 19:40:00,
2013-05-19 11:55:00,38.1,8.7,30.59,WSW,247,7.3,-999.0,29,-99.99,,,0.00,Acu-Link.com,2013-05-19 19:55:00,
2013-05-19 12:11:00,39.4,10.6,30.59,West,270,4.7,-999.0,30,-99.99,,,0.00,Acu-Link.com,2013-05-19 20:11:00,
2013-05-19 12:26:00,39.2,9.6,30.59,WSW,247,8.3,-999.0,29,-99.99,,,0.00,Acu-Link.com,2013-05-19 20:26:00,
2013-05-19 12:41:00,40.1,10.4,30.60,WSW,247,8.9,-999.0,29,-99.99,,,0.00,Acu-Link.com,2013-05-19 20:41:00,
2013-05-19 12:56:00,40.6,10.1,30.60,WNW,292,1.7,-999.0,28,-99.99,,,0.00,Acu-Link.com,2013-05-19 20:56:00,
2013-05-19 13:11:00,40.5,10.8,30.60,West,270,6.8,-999.0,29,-99.99,,,0.00,Acu-Link.com,2013-05-19 21:11:00,
2013-05-19 13:26:00,40.1,8.8,30.61,West,270,7.3,-999.0,27,-99.99,,,0.00,Acu-Link.com,2013-05-19 21:26:00,
2013-05-19 13:41:00,41.4,10.0,30.61,WNW,292,4.2,-999.0,27,-99.99,,,0.00,Acu-Link.com,2013-05-19 21:41:00,
2013-05-19 13:56:00,41.7,11.0,30.61,West,270,5.8,-999.0,28,-99.99,,,0.00,Acu-Link.com,2013-05-19 21:56:00,
2013-05-19 14:11:00,41.5,10.0,30.62,WNW,292,4.7,-999.0,27,-99.99,,,0.00,Acu-Link.com,2013-05-19 22:11:00,
2013-05-19 14:27:00,42.8,12.8,30.62,West,270,6.3,-999.0,29,-99.99,,,0.00,Acu-Link.com,2013-05-19 22:27:00,
2013-05-19 14:42:00,43.5,11.8,30.62,West,270,8.3,-999.0,27,-99.99,,,0.00,Acu-Link.com,2013-05-19 22:42:00,
2013-05-19 14:57:00,41.9,10.4,30.61,SSE,157,1.1,-999.0,27,-99.99,,,0.00,Acu-Link.com,2013-05-19 22:57:00,
2013-05-19 15:12:00,43.2,11.5,30.62,WSW,247,5.3,-999.0,27,-99.99,,,0.00,Acu-Link.com,2013-05-19 23:12:00,
2013-05-19 15:27:00,44.1,13.1,30.62,WSW,247,13.0,-999.0,28,-99.99,,,0.00,Acu-Link.com,2013-05-19 23:27:00,
2013-05-19 15:42:00,43.7,12.8,30.62,West,270,5.3,-999.0,28,-99.99,,,0.00,Acu-Link.com,2013-05-19 23:42:00,
2013-05-19 15:57:00,44.6,12.7,30.62,WSW,247,8.3,-999.0,27,-99.99,,,0.00,Acu-Link.com,2013-05-19 23:57:00,
2013-05-19 16:12:00,43.3,12.4,30.63,NW,315,4.7,-999.0,28,-99.99,,,0.00,Acu-Link.com,2013-05-20 00:12:00,
2013-05-19 16:27:00,44.4,12.5,30.62,WSW,247,4.2,-999.0,27,-99.99,,,0.00,Acu-Link.com,2013-05-20 00:27:00,
2013-05-19 16:43:00,45.0,13.1,30.63,West,270,4.2,-999.0,27,-99.99,,,0.00,Acu-Link.com,2013-05-20 00:43:00,
2013-05-19 16:58:00,44.8,13.7,30.63,ESE,112,5.8,-999.0,28,-99.99,,,0.00,Acu-Link.com,2013-05-20 00:58:00,
2013-05-19 17:13:00,44.8,12.9,30.63,East,90,2.2,-999.0,27,-99.99,,,0.00,Acu-Link.com,2013-05-20 01:13:00,
2013-05-19 17:28:00,45.1,14.0,30.63,South,180,5.3,-999.0,28,-99.99,,,0.00,Acu-Link.com,2013-05-20 01:28:00,
2013-05-19 17:43:00,45.9,13.8,30.63,WSW,247,7.3,-999.0,27,-99.99,,,0.00,Acu-Link.com,2013-05-20 01:43:00,
2013-05-19 17:58:00,45.9,15.5,30.63,WSW,247,5.3,-999.0,29,-99.99,,,0.00,Acu-Link.com,2013-05-20 01:58:00,
2013-05-19 18:13:00,45.5,12.6,30.63,SE,135,1.7,-999.0,26,-99.99,,,0.00,Acu-Link.com,2013-05-20 02:13:00,
2013-05-19 18:28:00,45.5,13.5,30.64,West,270,6.8,-999.0,27,-99.99,,,0.00,Acu-Link.com,2013-05-20 02:28:00,
2013-05-19 18:43:00,45.9,13.8,30.63,WNW,292,4.2,-999.0,27,-99.99,,,0.00,Acu-Link.com,2013-05-20 02:43:00,
2013-05-19 18:59:00,46.0,13.9,30.63,WSW,247,4.7,-999.0,27,-99.99,,,0.00,Acu-Link.com,2013-05-20 02:59:00,
2013-05-19 19:14:00,46.4,15.1,30.63,SE,135,4.2,-999.0,28,-99.99,,,0.00,Acu-Link.com,2013-05-20 03:14:00,
2013-05-19 19:29:00,45.5,15.1,30.64,SE,135,4.2,-999.0,29,-99.99,,,0.00,Acu-Link.com,2013-05-20 03:29:00,
2013-05-19 19:44:00,46.8,15.4,30.64,WSW,247,3.2,-999.0,28,-99.99,,,0.00,Acu-Link.com,2013-05-20 03:44:00,
2013-05-19 19:59:00,48.4,16.0,30.64,West,270,4.7,-999.0,27,-99.99,,,0.00,Acu-Link.com,2013-05-20 03:59:00,
2013-05-19 20:14:00,45.3,15.7,30.65,West,270,5.3,-999.0,30,-99.99,,,0.00,Acu-Link.com,2013-05-20 04:14:00,
2013-05-19 20:30:00,44.6,15.1,30.64,SSE,157,1.7,-999.0,30,-99.99,,,0.00,Acu-Link.com,2013-05-20 04:30:00,
2013-05-19 20:45:00,45.7,15.3,30.65,SW,225,3.7,-999.0,29,-99.99,,,0.00,Acu-Link.com,2013-05-20 04:45:00,
2013-05-19 21:00:00,45.5,16.6,30.66,ESE,112,3.7,-999.0,31,-99.99,,,0.00,Acu-Link.com,2013-05-20 05:00:00,
2013-05-19 21:15:00,46.6,16.8,30.66,ESE,112,2.7,-999.0,30,-99.99,,,0.00,Acu-Link.com,2013-05-20 05:15:00,
2013-05-19 21:30:00,45.7,16.1,30.65,WSW,247,3.7,-999.0,30,-99.99,,,0.00,Acu-Link.com,2013-05-20 05:30:00,
2013-05-19 21:45:00,45.5,16.6,30.66,SSW,202,2.7,-999.0,31,-99.99,,,0.00,Acu-Link.com,2013-05-20 05:45:00,
2013-05-19 22:00:00,45.0,16.2,30.67,SW,225,1.1,-999.0,31,-99.99,,,0.00,Acu-Link.com,2013-05-20 06:00:00,
2013-05-19 22:16:00,43.5,17.0,30.66,SW,225,0.0,-999.0,34,-99.99,,,0.00,Acu-Link.com,2013-05-20 06:16:00,
2013-05-19 22:31:00,38.7,18.7,30.67,SW,225,0.0,-999.0,44,-99.99,,,0.00,Acu-Link.com,2013-05-20 06:31:00,
2013-05-19 22:46:00,35.1,17.4,30.67,SW,225,0.0,-999.0,48,-99.99,,,0.00,Acu-Link.com,2013-05-20 06:46:00,
2013-05-19 23:01:00,32.4,19.3,30.68,SW,225,0.0,-999.0,58,-99.99,,,0.00,Acu-Link.com,2013-05-20 07:01:00,
2013-05-19 23:16:00,30.2,18.4,30.68,SW,225,0.0,-999.0,61,-99.99,,,0.00,Acu-Link.com,2013-05-20 07:16:00,
2013-05-19 23:31:00,28.6,16.9,30.68,SW,225,0.0,-999.0,61,-99.99,,,0.00,Acu-Link.com,2013-05-20 07:31:00,
2013-05-19 23:46:00,27.3,18.2,30.69,SW,225,0.0,-999.0,68,-99.99,,,0.00,Acu-Link.com,2013-05-20 07:46:00,